sensor_id;sensor_type;location;lat;lon;timestamp;temperature;humidity
420;DHT22;42600;54.408;13.016;2022-09-09T00:00:49;13.50;92.70
420;DHT22;42600;54.408;13.016;2022-09-09T00:03:24;13.50;92.70
420;DHT22;42600;54.408;13.016;2022-09-09T00:05:58;13.50;92.70
420;DHT22;42600;54.408;13.016;2022-09-09T00:08:36;13.50;92.70
420;DHT22;42600;54.408;13.016;2022-09-09T00:11:12;13.50;92.70
420;DHT22;42600;54.408;13.016;2022-09-09T00:13:42;13.50;92.70
420;DHT22;42600;54.408;13.016;2022-09-09T00:16:16;13.50;92.70
420;DHT22;42600;54.408;13.016;2022-09-09T00:18:51;13.50;92.70
420;DHT22;42600;54.408;13.016;2022-09-09T00:21:23;13.50;92.70
420;DHT22;42600;54.408;13.016;2022-09-09T00:23:54;13.50;92.70
420;DHT22;42600;54.408;13.016;2022-09-09T00:26:26;13.50;92.70
420;DHT22;42600;54.408;13.016;2022-09-09T00:29:04;13.50;92.70
420;DHT22;42600;54.408;13.016;2022-09-09T00:31:31;13.50;92.70
420;DHT22;42600;54.408;13.016;2022-09-09T00:34:03;13.50;92.70
420;DHT22;42600;54.408;13.016;2022-09-09T00:36:32;13.50;92.70
420;DHT22;42600;54.408;13.016;2022-09-09T00:39:03;13.50;92.70
420;DHT22;42600;54.408;13.016;2022-09-09T00:41:39;13.50;92.70
420;DHT22;42600;54.408;13.016;2022-09-09T00:44:22;13.50;92.70
420;DHT22;42600;54.408;13.016;2022-09-09T00:47:03;13.60;92.70
420;DHT22;42600;54.408;13.016;2022-09-09T00:49:39;13.60;92.70
420;DHT22;42600;54.408;13.016;2022-09-09T00:52:22;13.60;92.70
420;DHT22;42600;54.408;13.016;2022-09-09T00:55:03;13.60;92.70
420;DHT22;42600;54.408;13.016;2022-09-09T00:57:32;13.60;92.70
420;DHT22;42600;54.408;13.016;2022-09-09T01:00:18;13.70;92.70
420;DHT22;42600;54.408;13.016;2022-09-09T01:02:53;13.70;92.70
420;DHT22;42600;54.408;13.016;2022-09-09T01:05:27;13.70;92.70
420;DHT22;42600;54.408;13.016;2022-09-09T01:07:58;13.70;92.70
420;DHT22;42600;54.408;13.016;2022-09-09T01:10:36;13.70;92.70
420;DHT22;42600;54.408;13.016;2022-09-09T01:13:09;13.80;92.70
420;DHT22;42600;54.408;13.016;2022-09-09T01:15:40;13.80;92.70
420;DHT22;42600;54.408;13.016;2022-09-09T01:18:11;13.80;92.70
420;DHT22;42600;54.408;13.016;2022-09-09T01:20:45;13.80;92.70
420;DHT22;42600;54.408;13.016;2022-09-09T01:23:41;13.80;92.70
420;DHT22;42600;54.408;13.016;2022-09-09T01:26:34;13.80;92.70
420;DHT22;42600;54.408;13.016;2022-09-09T01:29:01;13.90;92.70
420;DHT22;42600;54.408;13.016;2022-09-09T01:31:30;13.90;92.70
420;DHT22;42600;54.408;13.016;2022-09-09T01:33:58;13.90;92.70
420;DHT22;42600;54.408;13.016;2022-09-09T01:36:31;13.90;92.70
420;DHT22;42600;54.408;13.016;2022-09-09T01:39:01;14.00;92.70
420;DHT22;42600;54.408;13.016;2022-09-09T01:41:28;14.00;92.70
420;DHT22;42600;54.408;13.016;2022-09-09T01:43:56;14.10;92.70
420;DHT22;42600;54.408;13.016;2022-09-09T01:46:23;14.10;92.70
420;DHT22;42600;54.408;13.016;2022-09-09T01:48:51;14.10;92.70
420;DHT22;42600;54.408;13.016;2022-09-09T01:51:18;14.10;92.70
420;DHT22;42600;54.408;13.016;2022-09-09T01:53:45;14.10;92.70
420;DHT22;42600;54.408;13.016;2022-09-09T01:56:21;14.10;92.70
420;DHT22;42600;54.408;13.016;2022-09-09T01:59:05;14.10;92.70
420;DHT22;42600;54.408;13.016;2022-09-09T02:01:45;14.10;92.70
420;DHT22;42600;54.408;13.016;2022-09-09T02:04:22;14.10;92.70
420;DHT22;42600;54.408;13.016;2022-09-09T02:06:53;14.20;92.70
420;DHT22;42600;54.408;13.016;2022-09-09T02:09:24;14.20;92.70
420;DHT22;42600;54.408;13.016;2022-09-09T02:11:57;14.20;92.70
420;DHT22;42600;54.408;13.016;2022-09-09T02:14:30;14.20;92.70
420;DHT22;42600;54.408;13.016;2022-09-09T02:17:05;14.20;92.70
420;DHT22;42600;54.408;13.016;2022-09-09T02:19:37;14.20;92.70
420;DHT22;42600;54.408;13.016;2022-09-09T02:22:06;14.20;92.70
420;DHT22;42600;54.408;13.016;2022-09-09T02:24:35;14.20;92.70
420;DHT22;42600;54.408;13.016;2022-09-09T02:27:06;14.20;92.70
420;DHT22;42600;54.408;13.016;2022-09-09T02:29:37;14.20;92.70
420;DHT22;42600;54.408;13.016;2022-09-09T02:32:08;14.30;92.70
420;DHT22;42600;54.408;13.016;2022-09-09T02:34:41;14.30;92.70
420;DHT22;42600;54.408;13.016;2022-09-09T02:37:09;14.30;92.70
420;DHT22;42600;54.408;13.016;2022-09-09T02:39:36;14.30;92.70
420;DHT22;42600;54.408;13.016;2022-09-09T02:42:04;14.30;92.70
420;DHT22;42600;54.408;13.016;2022-09-09T02:44:35;14.30;92.70
420;DHT22;42600;54.408;13.016;2022-09-09T02:47:14;14.30;92.70
420;DHT22;42600;54.408;13.016;2022-09-09T02:49:51;14.30;92.70
420;DHT22;42600;54.408;13.016;2022-09-09T02:52:26;14.30;92.70
420;DHT22;42600;54.408;13.016;2022-09-09T02:55:02;14.30;92.70
420;DHT22;42600;54.408;13.016;2022-09-09T02:57:31;14.30;92.70
420;DHT22;42600;54.408;13.016;2022-09-09T03:00:01;14.30;92.70
420;DHT22;42600;54.408;13.016;2022-09-09T03:02:28;14.30;92.70
420;DHT22;42600;54.408;13.016;2022-09-09T03:04:55;14.30;92.70
420;DHT22;42600;54.408;13.016;2022-09-09T03:07:22;14.30;92.70
420;DHT22;42600;54.408;13.016;2022-09-09T03:09:49;14.30;92.70
420;DHT22;42600;54.408;13.016;2022-09-09T03:12:16;14.20;92.70
420;DHT22;42600;54.408;13.016;2022-09-09T03:14:43;14.30;92.70
420;DHT22;42600;54.408;13.016;2022-09-09T03:17:12;14.30;92.70
420;DHT22;42600;54.408;13.016;2022-09-09T03:19:39;14.30;92.70
420;DHT22;42600;54.408;13.016;2022-09-09T03:22:07;14.30;92.70
420;DHT22;42600;54.408;13.016;2022-09-09T03:24:35;14.30;92.70
420;DHT22;42600;54.408;13.016;2022-09-09T03:27:02;14.30;92.70
420;DHT22;42600;54.408;13.016;2022-09-09T03:29:28;14.30;92.70
420;DHT22;42600;54.408;13.016;2022-09-09T03:31:55;14.30;92.70
420;DHT22;42600;54.408;13.016;2022-09-09T03:34:23;14.30;92.70
420;DHT22;42600;54.408;13.016;2022-09-09T03:36:50;14.30;92.70
420;DHT22;42600;54.408;13.016;2022-09-09T03:39:17;14.30;92.70
420;DHT22;42600;54.408;13.016;2022-09-09T03:41:43;14.30;92.70
420;DHT22;42600;54.408;13.016;2022-09-09T03:44:11;14.30;92.70
420;DHT22;42600;54.408;13.016;2022-09-09T03:46:38;14.30;92.70
420;DHT22;42600;54.408;13.016;2022-09-09T03:49:04;14.30;92.70
420;DHT22;42600;54.408;13.016;2022-09-09T03:51:32;14.20;92.70
420;DHT22;42600;54.408;13.016;2022-09-09T03:54:02;14.30;92.70
420;DHT22;42600;54.408;13.016;2022-09-09T03:56:30;14.30;92.70
420;DHT22;42600;54.408;13.016;2022-09-09T03:58:57;14.30;92.70
420;DHT22;42600;54.408;13.016;2022-09-09T04:01:23;14.30;92.70
420;DHT22;42600;54.408;13.016;2022-09-09T04:03:50;14.40;92.70
420;DHT22;42600;54.408;13.016;2022-09-09T04:06:18;14.40;92.70
420;DHT22;42600;54.408;13.016;2022-09-09T04:08:47;14.40;92.70
420;DHT22;42600;54.408;13.016;2022-09-09T04:11:14;14.40;92.70
420;DHT22;42600;54.408;13.016;2022-09-09T04:13:41;14.40;92.70
420;DHT22;42600;54.408;13.016;2022-09-09T04:16:10;14.40;92.70
420;DHT22;42600;54.408;13.016;2022-09-09T04:18:38;14.40;92.70
420;DHT22;42600;54.408;13.016;2022-09-09T04:21:05;14.40;92.70
420;DHT22;42600;54.408;13.016;2022-09-09T04:23:32;14.40;92.70
420;DHT22;42600;54.408;13.016;2022-09-09T04:26:02;14.40;92.70
420;DHT22;42600;54.408;13.016;2022-09-09T04:28:30;14.40;92.70
420;DHT22;42600;54.408;13.016;2022-09-09T04:31:03;14.40;92.70
420;DHT22;42600;54.408;13.016;2022-09-09T04:33:29;14.40;92.70
420;DHT22;42600;54.408;13.016;2022-09-09T04:35:56;14.50;92.70
420;DHT22;42600;54.408;13.016;2022-09-09T04:38:23;14.50;92.70
420;DHT22;42600;54.408;13.016;2022-09-09T04:40:51;14.50;92.70
420;DHT22;42600;54.408;13.016;2022-09-09T04:43:20;14.50;92.70
420;DHT22;42600;54.408;13.016;2022-09-09T04:45:50;14.40;92.70
420;DHT22;42600;54.408;13.016;2022-09-09T04:48:17;14.40;92.70
420;DHT22;42600;54.408;13.016;2022-09-09T04:50:44;14.40;92.70
420;DHT22;42600;54.408;13.016;2022-09-09T04:53:11;14.40;92.70
420;DHT22;42600;54.408;13.016;2022-09-09T04:55:38;14.40;92.70
420;DHT22;42600;54.408;13.016;2022-09-09T04:58:05;14.50;92.70
420;DHT22;42600;54.408;13.016;2022-09-09T05:00:33;14.40;92.70
420;DHT22;42600;54.408;13.016;2022-09-09T05:03:02;14.50;92.70
420;DHT22;42600;54.408;13.016;2022-09-09T05:05:30;14.50;92.70
420;DHT22;42600;54.408;13.016;2022-09-09T05:08:00;14.40;92.70
420;DHT22;42600;54.408;13.016;2022-09-09T05:10:28;14.50;92.70
420;DHT22;42600;54.408;13.016;2022-09-09T05:12:54;14.50;92.70
420;DHT22;42600;54.408;13.016;2022-09-09T05:15:21;14.50;92.70
420;DHT22;42600;54.408;13.016;2022-09-09T05:17:49;14.50;92.70
420;DHT22;42600;54.408;13.016;2022-09-09T05:20:17;14.50;92.70
420;DHT22;42600;54.408;13.016;2022-09-09T05:22:44;14.50;92.70
420;DHT22;42600;54.408;13.016;2022-09-09T05:25:11;14.50;92.70
420;DHT22;42600;54.408;13.016;2022-09-09T05:27:37;14.50;92.70
420;DHT22;42600;54.408;13.016;2022-09-09T05:30:05;14.50;92.70
420;DHT22;42600;54.408;13.016;2022-09-09T05:32:31;14.50;92.70
420;DHT22;42600;54.408;13.016;2022-09-09T05:35:00;14.50;92.70
420;DHT22;42600;54.408;13.016;2022-09-09T05:37:27;14.50;92.70
420;DHT22;42600;54.408;13.016;2022-09-09T05:39:55;14.60;92.70
420;DHT22;42600;54.408;13.016;2022-09-09T05:42:23;14.60;92.70
420;DHT22;42600;54.408;13.016;2022-09-09T05:44:49;14.60;92.70
420;DHT22;42600;54.408;13.016;2022-09-09T05:47:19;14.60;92.70
420;DHT22;42600;54.408;13.016;2022-09-09T05:49:46;14.60;92.70
420;DHT22;42600;54.408;13.016;2022-09-09T05:52:14;14.60;92.70
420;DHT22;42600;54.408;13.016;2022-09-09T05:54:40;14.60;92.70
420;DHT22;42600;54.408;13.016;2022-09-09T05:57:08;14.60;92.70
420;DHT22;42600;54.408;13.016;2022-09-09T05:59:34;14.60;92.70
420;DHT22;42600;54.408;13.016;2022-09-09T06:02:01;14.70;92.70
420;DHT22;42600;54.408;13.016;2022-09-09T06:04:28;14.70;92.70
420;DHT22;42600;54.408;13.016;2022-09-09T06:06:55;14.70;92.70
420;DHT22;42600;54.408;13.016;2022-09-09T06:09:23;14.80;92.70
420;DHT22;42600;54.408;13.016;2022-09-09T06:11:50;14.80;92.70
420;DHT22;42600;54.408;13.016;2022-09-09T06:14:17;14.80;92.70
420;DHT22;42600;54.408;13.016;2022-09-09T06:16:44;14.80;92.70
420;DHT22;42600;54.408;13.016;2022-09-09T06:19:11;14.80;92.70
420;DHT22;42600;54.408;13.016;2022-09-09T06:21:38;14.80;92.70
420;DHT22;42600;54.408;13.016;2022-09-09T06:24:06;14.90;92.70
420;DHT22;42600;54.408;13.016;2022-09-09T06:26:36;14.90;92.70
420;DHT22;42600;54.408;13.016;2022-09-09T06:29:06;14.90;92.70
420;DHT22;42600;54.408;13.016;2022-09-09T06:31:34;15.00;92.70
420;DHT22;42600;54.408;13.016;2022-09-09T06:34:04;15.00;92.70
420;DHT22;42600;54.408;13.016;2022-09-09T06:36:32;15.00;92.70
420;DHT22;42600;54.408;13.016;2022-09-09T06:38:59;15.00;92.70
420;DHT22;42600;54.408;13.016;2022-09-09T06:41:28;15.00;92.70
420;DHT22;42600;54.408;13.016;2022-09-09T06:43:56;15.10;92.70
420;DHT22;42600;54.408;13.016;2022-09-09T06:46:24;15.10;92.70
420;DHT22;42600;54.408;13.016;2022-09-09T06:48:53;15.10;92.70
420;DHT22;42600;54.408;13.016;2022-09-09T06:51:22;15.10;92.70
420;DHT22;42600;54.408;13.016;2022-09-09T06:53:51;15.10;92.70
420;DHT22;42600;54.408;13.016;2022-09-09T06:56:21;15.20;92.70
420;DHT22;42600;54.408;13.016;2022-09-09T06:58:49;15.20;92.70
420;DHT22;42600;54.408;13.016;2022-09-09T07:01:18;15.20;92.70
420;DHT22;42600;54.408;13.016;2022-09-09T07:03:46;15.20;92.70
420;DHT22;42600;54.408;13.016;2022-09-09T07:06:14;15.20;92.70
420;DHT22;42600;54.408;13.016;2022-09-09T07:08:42;15.20;92.70
420;DHT22;42600;54.408;13.016;2022-09-09T07:11:09;15.20;92.70
420;DHT22;42600;54.408;13.016;2022-09-09T07:13:36;15.30;92.70
420;DHT22;42600;54.408;13.016;2022-09-09T07:16:04;15.30;92.70
420;DHT22;42600;54.408;13.016;2022-09-09T07:18:32;15.20;92.70
420;DHT22;42600;54.408;13.016;2022-09-09T07:20:58;15.30;92.70
420;DHT22;42600;54.408;13.016;2022-09-09T07:23:25;15.30;92.70
420;DHT22;42600;54.408;13.016;2022-09-09T07:25:52;15.30;92.70
420;DHT22;42600;54.408;13.016;2022-09-09T07:28:19;15.40;92.70
420;DHT22;42600;54.408;13.016;2022-09-09T07:30:53;15.30;92.70
420;DHT22;42600;54.408;13.016;2022-09-09T07:33:20;15.30;92.70
420;DHT22;42600;54.408;13.016;2022-09-09T07:35:48;15.30;92.70
420;DHT22;42600;54.408;13.016;2022-09-09T07:38:15;15.30;92.70
420;DHT22;42600;54.408;13.016;2022-09-09T07:40:41;15.40;92.70
420;DHT22;42600;54.408;13.016;2022-09-09T07:43:09;15.40;92.70
420;DHT22;42600;54.408;13.016;2022-09-09T07:45:36;15.30;92.70
420;DHT22;42600;54.408;13.016;2022-09-09T07:48:03;15.30;92.70
420;DHT22;42600;54.408;13.016;2022-09-09T07:50:30;15.30;92.70
420;DHT22;42600;54.408;13.016;2022-09-09T07:52:58;15.30;92.70
420;DHT22;42600;54.408;13.016;2022-09-09T07:55:25;15.40;92.70
420;DHT22;42600;54.408;13.016;2022-09-09T07:57:52;15.40;92.70
420;DHT22;42600;54.408;13.016;2022-09-09T08:00:18;15.50;92.70
420;DHT22;42600;54.408;13.016;2022-09-09T08:02:47;15.50;92.70
420;DHT22;42600;54.408;13.016;2022-09-09T08:05:14;15.50;92.70
420;DHT22;42600;54.408;13.016;2022-09-09T08:07:42;15.50;92.70
420;DHT22;42600;54.408;13.016;2022-09-09T08:10:10;15.50;92.70
420;DHT22;42600;54.408;13.016;2022-09-09T08:12:39;15.60;92.70
420;DHT22;42600;54.408;13.016;2022-09-09T08:15:07;15.60;92.70
420;DHT22;42600;54.408;13.016;2022-09-09T08:17:33;15.70;92.70
420;DHT22;42600;54.408;13.016;2022-09-09T08:20:00;15.70;92.70
420;DHT22;42600;54.408;13.016;2022-09-09T08:22:30;15.70;92.70
420;DHT22;42600;54.408;13.016;2022-09-09T08:24:56;15.80;92.70
420;DHT22;42600;54.408;13.016;2022-09-09T08:27:25;15.80;92.70
420;DHT22;42600;54.408;13.016;2022-09-09T08:29:51;15.90;92.70
420;DHT22;42600;54.408;13.016;2022-09-09T08:32:18;16.00;92.70
420;DHT22;42600;54.408;13.016;2022-09-09T08:34:45;16.00;92.70
420;DHT22;42600;54.408;13.016;2022-09-09T08:37:11;16.00;92.70
420;DHT22;42600;54.408;13.016;2022-09-09T08:39:38;16.10;92.70
420;DHT22;42600;54.408;13.016;2022-09-09T08:42:13;16.20;92.70
420;DHT22;42600;54.408;13.016;2022-09-09T08:44:59;16.20;92.70
420;DHT22;42600;54.408;13.016;2022-09-09T08:47:33;16.30;92.70
420;DHT22;42600;54.408;13.016;2022-09-09T08:50:13;16.40;92.70
420;DHT22;42600;54.408;13.016;2022-09-09T08:52:49;16.40;92.70
420;DHT22;42600;54.408;13.016;2022-09-09T08:55:24;16.40;92.70
420;DHT22;42600;54.408;13.016;2022-09-09T08:57:54;16.50;92.70
420;DHT22;42600;54.408;13.016;2022-09-09T09:00:31;16.50;92.70
420;DHT22;42600;54.408;13.016;2022-09-09T09:03:06;16.50;92.70
420;DHT22;42600;54.408;13.016;2022-09-09T09:05:41;16.50;92.70
420;DHT22;42600;54.408;13.016;2022-09-09T09:08:20;16.60;92.70
420;DHT22;42600;54.408;13.016;2022-09-09T09:10:51;16.60;92.70
420;DHT22;42600;54.408;13.016;2022-09-09T09:13:26;16.70;92.70
420;DHT22;42600;54.408;13.016;2022-09-09T09:15:58;16.70;92.70
420;DHT22;42600;54.408;13.016;2022-09-09T09:18:26;16.80;92.70
420;DHT22;42600;54.408;13.016;2022-09-09T09:20:58;16.80;92.70
420;DHT22;42600;54.408;13.016;2022-09-09T09:23:34;16.90;92.70
420;DHT22;42600;54.408;13.016;2022-09-09T09:26:01;16.90;92.70
420;DHT22;42600;54.408;13.016;2022-09-09T09:28:31;17.00;92.70
420;DHT22;42600;54.408;13.016;2022-09-09T09:31:03;17.00;92.70
420;DHT22;42600;54.408;13.016;2022-09-09T09:33:34;17.00;92.70
420;DHT22;42600;54.408;13.016;2022-09-09T09:36:02;17.00;92.70
420;DHT22;42600;54.408;13.016;2022-09-09T09:38:29;17.10;92.70
420;DHT22;42600;54.408;13.016;2022-09-09T09:40:57;17.10;92.70
420;DHT22;42600;54.408;13.016;2022-09-09T09:43:26;17.10;92.70
420;DHT22;42600;54.408;13.016;2022-09-09T09:45:53;17.20;92.70
420;DHT22;42600;54.408;13.016;2022-09-09T09:48:21;17.30;92.70
420;DHT22;42600;54.408;13.016;2022-09-09T09:50:50;17.30;92.70
420;DHT22;42600;54.408;13.016;2022-09-09T09:53:21;17.30;92.70
420;DHT22;42600;54.408;13.016;2022-09-09T09:55:54;17.30;92.70
420;DHT22;42600;54.408;13.016;2022-09-09T09:58:21;17.40;92.70
420;DHT22;42600;54.408;13.016;2022-09-09T10:00:48;17.50;92.70
420;DHT22;42600;54.408;13.016;2022-09-09T10:03:23;17.50;92.70
420;DHT22;42600;54.408;13.016;2022-09-09T10:05:51;17.60;92.70
420;DHT22;42600;54.408;13.016;2022-09-09T10:08:18;17.60;92.70
420;DHT22;42600;54.408;13.016;2022-09-09T10:11:02;17.70;92.70
420;DHT22;42600;54.408;13.016;2022-09-09T10:13:39;17.70;92.70
420;DHT22;42600;54.408;13.016;2022-09-09T10:16:20;17.70;92.70
420;DHT22;42600;54.408;13.016;2022-09-09T10:18:59;17.70;92.70
420;DHT22;42600;54.408;13.016;2022-09-09T10:21:34;17.70;92.70
420;DHT22;42600;54.408;13.016;2022-09-09T10:24:31;17.60;92.70
420;DHT22;42600;54.408;13.016;2022-09-09T10:27:05;17.70;92.70
420;DHT22;42600;54.408;13.016;2022-09-09T10:29:51;17.70;92.70
420;DHT22;42600;54.408;13.016;2022-09-09T10:32:35;17.60;92.70
420;DHT22;42600;54.408;13.016;2022-09-09T10:35:10;17.70;92.70
420;DHT22;42600;54.408;13.016;2022-09-09T10:37:46;17.90;92.70
420;DHT22;42600;54.408;13.016;2022-09-09T10:40:25;18.10;92.70
420;DHT22;42600;54.408;13.016;2022-09-09T10:42:59;18.30;92.70
420;DHT22;42600;54.408;13.016;2022-09-09T10:45:32;18.30;92.70
420;DHT22;42600;54.408;13.016;2022-09-09T10:48:19;18.40;92.70
420;DHT22;42600;54.408;13.016;2022-09-09T10:50:56;18.40;92.70
420;DHT22;42600;54.408;13.016;2022-09-09T10:53:36;18.40;92.70
420;DHT22;42600;54.408;13.016;2022-09-09T10:56:07;18.40;92.70
420;DHT22;42600;54.408;13.016;2022-09-09T10:58:40;18.30;92.70
420;DHT22;42600;54.408;13.016;2022-09-09T11:01:13;18.40;92.70
420;DHT22;42600;54.408;13.016;2022-09-09T11:03:43;18.50;92.70
420;DHT22;42600;54.408;13.016;2022-09-09T11:06:16;18.40;92.70
420;DHT22;42600;54.408;13.016;2022-09-09T11:08:44;18.40;92.70
420;DHT22;42600;54.408;13.016;2022-09-09T11:11:16;18.50;92.70
420;DHT22;42600;54.408;13.016;2022-09-09T11:13:48;18.60;92.70
420;DHT22;42600;54.408;13.016;2022-09-09T11:16:24;18.60;92.70
420;DHT22;42600;54.408;13.016;2022-09-09T11:18:57;18.80;92.70
420;DHT22;42600;54.408;13.016;2022-09-09T11:21:29;18.80;92.70
420;DHT22;42600;54.408;13.016;2022-09-09T11:24:00;18.90;92.70
420;DHT22;42600;54.408;13.016;2022-09-09T11:26:31;19.10;92.70
420;DHT22;42600;54.408;13.016;2022-09-09T11:29:10;19.10;92.70
420;DHT22;42600;54.408;13.016;2022-09-09T11:31:45;19.20;92.70
420;DHT22;42600;54.408;13.016;2022-09-09T11:34:25;19.30;92.70
420;DHT22;42600;54.408;13.016;2022-09-09T11:40:17;19.30;92.40
420;DHT22;42600;54.408;13.016;2022-09-09T11:42:45;19.40;92.30
420;DHT22;42600;54.408;13.016;2022-09-09T11:45:21;19.50;92.70
420;DHT22;42600;54.408;13.016;2022-09-09T11:47:53;19.60;91.80
420;DHT22;42600;54.408;13.016;2022-09-09T11:50:35;19.80;92.10
420;DHT22;42600;54.408;13.016;2022-09-09T11:53:22;19.90;92.40
420;DHT22;42600;54.408;13.016;2022-09-09T11:56:07;19.80;91.50
420;DHT22;42600;54.408;13.016;2022-09-09T11:58:53;19.80;90.20
420;DHT22;42600;54.408;13.016;2022-09-09T12:01:29;19.80;91.40
420;DHT22;42600;54.408;13.016;2022-09-09T12:04:06;19.90;92.10
420;DHT22;42600;54.408;13.016;2022-09-09T12:06:42;20.10;92.70
420;DHT22;42600;54.408;13.016;2022-09-09T12:09:19;20.00;92.30
420;DHT22;42600;54.408;13.016;2022-09-09T12:11:48;20.20;91.20
420;DHT22;42600;54.408;13.016;2022-09-09T12:14:35;20.20;90.20
420;DHT22;42600;54.408;13.016;2022-09-09T12:17:10;20.30;91.70
420;DHT22;42600;54.408;13.016;2022-09-09T12:19:43;20.30;91.30
420;DHT22;42600;54.408;13.016;2022-09-09T12:22:19;20.50;91.20
420;DHT22;42600;54.408;13.016;2022-09-09T12:24:54;20.40;90.70
420;DHT22;42600;54.408;13.016;2022-09-09T12:27:27;20.60;91.50
420;DHT22;42600;54.408;13.016;2022-09-09T12:30:01;20.40;91.00
420;DHT22;42600;54.408;13.016;2022-09-09T12:32:28;20.30;89.60
420;DHT22;42600;54.408;13.016;2022-09-09T12:34:58;20.30;92.70
420;DHT22;42600;54.408;13.016;2022-09-09T12:37:31;20.40;91.30
420;DHT22;42600;54.408;13.016;2022-09-09T12:40:02;20.30;91.20
420;DHT22;42600;54.408;13.016;2022-09-09T12:42:29;20.60;92.70
420;DHT22;42600;54.408;13.016;2022-09-09T12:44:59;20.50;91.30
420;DHT22;42600;54.408;13.016;2022-09-09T12:47:33;20.60;92.10
420;DHT22;42600;54.408;13.016;2022-09-09T12:50:03;20.60;91.10
420;DHT22;42600;54.408;13.016;2022-09-09T12:52:31;20.70;91.90
420;DHT22;42600;54.408;13.016;2022-09-09T12:55:03;20.60;91.00
420;DHT22;42600;54.408;13.016;2022-09-09T12:57:34;20.60;91.40
420;DHT22;42600;54.408;13.016;2022-09-09T13:00:10;20.60;91.40
420;DHT22;42600;54.408;13.016;2022-09-09T13:02:49;20.70;91.40
420;DHT22;42600;54.408;13.016;2022-09-09T13:05:20;20.60;91.20
420;DHT22;42600;54.408;13.016;2022-09-09T13:07:47;20.60;91.90
420;DHT22;42600;54.408;13.016;2022-09-09T13:10:23;20.60;92.20
420;DHT22;42600;54.408;13.016;2022-09-09T13:12:52;20.60;91.30
420;DHT22;42600;54.408;13.016;2022-09-09T13:15:21;20.60;92.20
420;DHT22;42600;54.408;13.016;2022-09-09T13:17:53;20.60;91.40
420;DHT22;42600;54.408;13.016;2022-09-09T13:20:21;20.50;90.40
420;DHT22;42600;54.408;13.016;2022-09-09T13:22:48;20.40;90.40
420;DHT22;42600;54.408;13.016;2022-09-09T13:25:23;20.50;92.70
420;DHT22;42600;54.408;13.016;2022-09-09T13:27:54;20.80;92.70
420;DHT22;42600;54.408;13.016;2022-09-09T13:30:23;20.70;91.10
420;DHT22;42600;54.408;13.016;2022-09-09T13:33:06;20.70;90.60
420;DHT22;42600;54.408;13.016;2022-09-09T13:35:46;20.70;90.60
420;DHT22;42600;54.408;13.016;2022-09-09T13:38:15;20.60;92.50
420;DHT22;42600;54.408;13.016;2022-09-09T13:40:54;20.60;92.70
420;DHT22;42600;54.408;13.016;2022-09-09T13:43:24;20.70;92.70
420;DHT22;42600;54.408;13.016;2022-09-09T13:45:55;20.70;92.20
420;DHT22;42600;54.408;13.016;2022-09-09T13:48:23;20.60;92.50
420;DHT22;42600;54.408;13.016;2022-09-09T13:50:58;20.60;92.70
420;DHT22;42600;54.408;13.016;2022-09-09T13:53:25;20.60;92.70
420;DHT22;42600;54.408;13.016;2022-09-09T13:55:53;20.60;92.70
420;DHT22;42600;54.408;13.016;2022-09-09T13:58:22;20.50;92.70
420;DHT22;42600;54.408;13.016;2022-09-09T14:00:50;20.50;92.70
420;DHT22;42600;54.408;13.016;2022-09-09T14:03:17;20.40;92.70
420;DHT22;42600;54.408;13.016;2022-09-09T14:05:44;20.40;92.70
420;DHT22;42600;54.408;13.016;2022-09-09T14:08:24;20.40;92.70
420;DHT22;42600;54.408;13.016;2022-09-09T14:10:50;20.30;92.70
420;DHT22;42600;54.408;13.016;2022-09-09T14:13:19;20.30;92.70
420;DHT22;42600;54.408;13.016;2022-09-09T14:15:48;20.30;92.70
420;DHT22;42600;54.408;13.016;2022-09-09T14:18:15;20.20;92.70
420;DHT22;42600;54.408;13.016;2022-09-09T14:20:41;20.20;92.70
420;DHT22;42600;54.408;13.016;2022-09-09T14:23:10;20.20;92.70
420;DHT22;42600;54.408;13.016;2022-09-09T14:25:40;20.10;92.70
420;DHT22;42600;54.408;13.016;2022-09-09T14:28:09;20.00;92.70
420;DHT22;42600;54.408;13.016;2022-09-09T14:30:38;20.00;92.70
420;DHT22;42600;54.408;13.016;2022-09-09T14:33:07;20.00;92.70
420;DHT22;42600;54.408;13.016;2022-09-09T14:35:34;20.00;92.70
420;DHT22;42600;54.408;13.016;2022-09-09T14:38:01;20.00;92.70
420;DHT22;42600;54.408;13.016;2022-09-09T14:40:28;20.00;92.70
420;DHT22;42600;54.408;13.016;2022-09-09T14:42:55;19.90;92.70
420;DHT22;42600;54.408;13.016;2022-09-09T14:45:22;20.00;92.70
420;DHT22;42600;54.408;13.016;2022-09-09T14:47:51;19.90;92.70
420;DHT22;42600;54.408;13.016;2022-09-09T14:50:18;20.00;92.70
420;DHT22;42600;54.408;13.016;2022-09-09T14:52:45;20.00;92.70
420;DHT22;42600;54.408;13.016;2022-09-09T14:55:12;20.00;92.70
420;DHT22;42600;54.408;13.016;2022-09-09T14:57:38;19.90;92.70
420;DHT22;42600;54.408;13.016;2022-09-09T15:00:07;19.80;92.70
420;DHT22;42600;54.408;13.016;2022-09-09T15:02:34;19.90;92.70
420;DHT22;42600;54.408;13.016;2022-09-09T15:05:02;19.80;92.70
420;DHT22;42600;54.408;13.016;2022-09-09T15:07:29;19.80;92.70
420;DHT22;42600;54.408;13.016;2022-09-09T15:09:57;19.90;92.70
420;DHT22;42600;54.408;13.016;2022-09-09T15:12:24;19.90;92.70
420;DHT22;42600;54.408;13.016;2022-09-09T15:14:50;19.80;92.70
420;DHT22;42600;54.408;13.016;2022-09-09T15:17:19;19.80;92.70
420;DHT22;42600;54.408;13.016;2022-09-09T15:19:45;19.80;92.70
420;DHT22;42600;54.408;13.016;2022-09-09T15:22:13;19.80;92.70
420;DHT22;42600;54.408;13.016;2022-09-09T15:24:40;19.70;92.70
420;DHT22;42600;54.408;13.016;2022-09-09T15:27:06;19.60;92.70
420;DHT22;42600;54.408;13.016;2022-09-09T15:29:33;19.60;92.70
420;DHT22;42600;54.408;13.016;2022-09-09T15:31:59;19.50;92.70
420;DHT22;42600;54.408;13.016;2022-09-09T15:34:26;19.40;92.70
420;DHT22;42600;54.408;13.016;2022-09-09T15:36:52;19.40;92.70
420;DHT22;42600;54.408;13.016;2022-09-09T15:39:22;19.30;92.70
420;DHT22;42600;54.408;13.016;2022-09-09T15:41:48;19.20;92.70
420;DHT22;42600;54.408;13.016;2022-09-09T15:44:15;19.20;92.70
420;DHT22;42600;54.408;13.016;2022-09-09T15:46:44;19.10;92.70
420;DHT22;42600;54.408;13.016;2022-09-09T15:49:12;19.10;92.70
420;DHT22;42600;54.408;13.016;2022-09-09T15:51:40;19.10;92.70
420;DHT22;42600;54.408;13.016;2022-09-09T15:54:08;19.00;92.70
420;DHT22;42600;54.408;13.016;2022-09-09T15:56:36;18.90;92.70
420;DHT22;42600;54.408;13.016;2022-09-09T15:59:03;18.90;92.70
420;DHT22;42600;54.408;13.016;2022-09-09T16:01:30;18.80;92.70
420;DHT22;42600;54.408;13.016;2022-09-09T16:03:58;18.80;92.70
420;DHT22;42600;54.408;13.016;2022-09-09T16:06:25;18.70;92.70
420;DHT22;42600;54.408;13.016;2022-09-09T16:08:54;18.60;92.70